Aérodrome :
LOGIN :

S'inscrire | Disclaimer

   EN    FR    IT 

 










Légende :    VFR   VFR Marginal   IFR   IFR Intensif   IFR Très Intensif
Visi : 
Plafond : 
>= 8 km
>= 3000ft
5 à 8 km
1000 à 3000 ft
1500m à 5 km
500 à 1000 ft
800 à 1500m
200 à 500 ft
< 800m
< 200 ft
Symboles :   Orages  Brouillard  Fortes neiges  Fortes précipitations  Vent > 20 kt
SIGMETs :   Divers  Orages  Givrage  Turbulence  Onde Orograph.  Cendres Volcan.






- Altitude de l'aérodrome : 0 ft


ENLA - Ula Platform

DERNIER METAR :
  • 150420Z AUTO 16015G27KT 130V220 9999NDV SCT027/// 07/01 Q0978 W///S5

METARs EXPIRÉS :
  • 150350Z AUTO VRB10KT 9999NDV FEW034/// 07/00 Q0978 W///S5
  • 150320Z AUTO VRB10G20KT 9999NDV SCT029/// 07/01 Q0978 W///S5
  • 150250Z AUTO VRB10G23KT 9999NDV SCT031/// SCT039/// 07/M01 Q0978 W///S5
  • 150220Z AUTO 21012G28KT 9999NDV BKN032/// 07/00 Q0978 W///S5
  • 150150Z AUTO 22002G24KT 9999NDV BKN037/// BKN130/// 07/M01 Q0979 W///S5

TAF N/A



MET'MAP, la Météo Aéronautique d'un coup d'oeil ! - Copyright ORBIFLY Décembre 2007 - Disclaimer

ORBIFLY MET'MAP TEAM :

Programmation & Développement : Alexandra Zaïnal
Sur une idée originale de : Baudouin d'Aumeries
Assistance à la programmation : Marc-Olivier Méhu
Soutien technique & logistique : Manuel Goepfert

Contact : metmap@orbifly.com




SOURCES & CREDITS :

   NOAA